createdAt,value
2018-09-02T00:00:37.498Z,10.77
2018-09-02T00:02:42.094Z,12.00
2018-09-02T00:04:46.047Z,7.07
2018-09-02T00:06:50.538Z,8.30
2018-09-02T00:08:55.064Z,6.73
2018-09-02T00:11:02.147Z,8.03
2018-09-02T00:13:14.361Z,7.97
2018-09-02T00:15:19.635Z,7.70
2018-09-02T00:17:23.681Z,6.17
2018-09-02T00:19:27.955Z,6.30
2018-09-02T00:21:32.356Z,9.53
2018-09-02T00:23:37.499Z,6.80
2018-09-02T00:25:44.218Z,9.70
2018-09-02T00:27:48.847Z,7.73
2018-09-02T00:29:52.850Z,6.50
2018-09-02T00:31:59.021Z,7.47
2018-09-02T00:34:04.070Z,6.20
2018-09-02T00:36:12.049Z,7.70
2018-09-02T00:38:20.107Z,6.17
2018-09-02T00:40:24.967Z,9.70
2018-09-02T00:42:28.830Z,5.80
2018-09-02T00:44:35.442Z,6.90
2018-09-02T00:46:39.333Z,10.47
2018-09-02T00:48:43.704Z,10.30
2018-09-02T00:50:49.330Z,6.37
2018-09-02T00:52:53.393Z,5.63
2018-09-02T00:54:57.568Z,5.80
2018-09-02T00:57:02.159Z,10.10
2018-09-02T00:59:09.749Z,8.00
2018-09-02T01:01:16.330Z,5.70
2018-09-02T01:03:26.133Z,5.10
2018-09-02T01:05:30.409Z,5.60
2018-09-02T01:07:34.509Z,5.70
2018-09-02T01:09:38.943Z,4.97
2018-09-02T01:11:42.695Z,8.57
2018-09-02T01:13:46.662Z,5.40
2018-09-02T01:15:51.213Z,5.57
2018-09-02T01:17:55.069Z,5.50
2018-09-02T01:19:59.024Z,7.43
2018-09-02T01:22:03.664Z,5.47
2018-09-02T01:24:08.209Z,5.10
2018-09-02T01:26:15.020Z,6.60
2018-09-02T01:28:25.344Z,5.33
2018-09-02T01:30:30.872Z,5.33
2018-09-02T01:32:35.627Z,11.63
2018-09-02T01:34:43.276Z,4.67
2018-09-02T01:36:46.975Z,6.90
2018-09-02T01:38:50.607Z,5.80
2018-09-02T01:40:54.798Z,4.93
2018-09-02T01:42:58.518Z,4.40
2018-09-02T01:45:02.490Z,4.70
2018-09-02T01:47:06.564Z,4.53
2018-09-02T01:49:10.584Z,4.63
2018-09-02T01:51:18.694Z,5.30
2018-09-02T01:53:26.908Z,5.30
2018-09-02T01:55:33.857Z,5.07
2018-09-02T01:57:39.919Z,4.53
2018-09-02T01:59:44.619Z,5.27
2018-09-02T02:01:48.766Z,4.37
2018-09-02T02:03:53.281Z,5.07
2018-09-02T02:05:57.618Z,4.40
2018-09-02T02:08:01.441Z,4.40
2018-09-02T02:10:05.650Z,5.90
2018-09-02T02:12:10.201Z,5.07
2018-09-02T02:14:14.495Z,4.70
2018-09-02T02:16:18.838Z,4.60
2018-09-02T02:18:27.193Z,4.53
2018-09-02T02:20:32.714Z,5.10
2018-09-02T02:22:36.752Z,4.73
2018-09-02T02:24:43.046Z,4.20
2018-09-02T02:26:47.102Z,4.93
2018-09-02T02:28:50.926Z,4.40
2018-09-02T02:30:54.765Z,5.57
2018-09-02T02:32:58.827Z,6.80
2018-09-02T02:35:02.835Z,7.03
2018-09-02T02:37:07.316Z,5.40
2018-09-02T02:39:12.036Z,4.40
2018-09-02T02:41:15.866Z,4.17
2018-09-02T02:43:20.206Z,4.13
2018-09-02T02:45:24.344Z,4.10
2018-09-02T02:47:28.474Z,3.53
2018-09-02T02:49:35.339Z,5.00
2018-09-02T02:51:39.081Z,5.70
2018-09-02T02:53:42.873Z,4.73
2018-09-02T02:55:47.380Z,4.97
2018-09-02T02:57:51.205Z,4.90
2018-09-02T02:59:57.754Z,4.67
2018-09-02T03:02:05.891Z,5.03
2018-09-02T03:04:11.996Z,4.73
2018-09-02T03:06:17.733Z,4.57
2018-09-02T03:08:21.761Z,4.50
2018-09-02T03:10:25.992Z,4.93
2018-09-02T03:12:29.913Z,4.67
2018-09-02T03:14:33.946Z,4.50
2018-09-02T03:16:42.043Z,3.90
2018-09-02T03:18:46.061Z,3.80
2018-09-02T03:20:50.370Z,4.93
2018-09-02T03:22:54.342Z,4.23
2018-09-02T03:24:58.335Z,6.47
2018-09-02T03:27:05.082Z,4.40
2018-09-02T03:29:12.847Z,4.63
2018-09-02T03:31:18.370Z,4.40
2018-09-02T03:33:23.087Z,4.27
2018-09-02T03:35:27.036Z,4.80
2018-09-02T03:37:30.783Z,4.53
2018-09-02T03:39:36.493Z,7.63
2018-09-02T03:41:40.930Z,4.17
2018-09-02T03:43:47.234Z,4.37
2018-09-02T03:45:52.134Z,7.13
2018-09-02T03:47:56.740Z,3.80
2018-09-02T03:50:01.152Z,4.13
2018-09-02T03:52:06.390Z,4.67
2018-09-02T03:54:14.340Z,3.43
2018-09-02T03:56:20.485Z,4.40
2018-09-02T03:58:25.876Z,3.50
2018-09-02T04:00:30.685Z,4.70
2018-09-02T04:02:34.398Z,4.23
2018-09-02T04:04:38.379Z,5.17
2018-09-02T04:06:42.863Z,4.10
2018-09-02T04:08:46.752Z,5.77
2018-09-02T04:10:50.815Z,4.27
2018-09-02T04:12:54.963Z,4.10
2018-09-02T04:14:58.794Z,4.07
2018-09-02T04:17:06.026Z,4.00
2018-09-02T04:19:09.812Z,3.60
2018-09-02T04:25:36.929Z,4.57
2018-09-02T04:27:40.563Z,4.90
2018-09-02T04:29:44.665Z,3.77
2018-09-02T04:31:53.014Z,4.00
2018-09-02T04:33:57.119Z,5.87
2018-09-02T04:36:01.567Z,4.30
2018-09-02T04:38:05.857Z,3.90
2018-09-02T04:40:09.820Z,5.50
2018-09-02T04:42:14.160Z,4.20
2018-09-02T04:44:21.702Z,3.50
2018-09-02T04:46:27.388Z,4.17
2018-09-02T04:48:33.003Z,3.80
2018-09-02T04:50:37.068Z,3.80
2018-09-02T04:52:41.730Z,3.60
2018-09-02T04:54:45.518Z,4.23
2018-09-02T04:56:53.877Z,4.77
2018-09-02T04:58:58.540Z,3.60
2018-09-02T05:01:02.622Z,3.93
2018-09-02T05:03:07.073Z,3.80
2018-09-02T05:05:11.245Z,3.70
2018-09-02T05:07:15.426Z,3.50
2018-09-02T05:09:22.294Z,5.03
2018-09-02T05:11:34.064Z,3.87
2018-09-02T05:13:41.815Z,4.60
2018-09-02T05:15:45.741Z,3.80
2018-09-02T05:17:49.593Z,3.67
2018-09-02T05:19:53.615Z,3.93
2018-09-02T05:21:58.111Z,3.97
2018-09-02T05:24:02.094Z,4.13
2018-09-02T05:26:06.106Z,4.37
2018-09-02T05:28:10.646Z,3.60
2018-09-02T05:30:14.739Z,3.47
2018-09-02T05:32:18.899Z,3.77
2018-09-02T05:34:26.058Z,3.40
2018-09-02T05:36:32.840Z,3.80
2018-09-02T05:38:38.224Z,3.47
2018-09-02T05:40:43.998Z,3.57
2018-09-02T05:42:47.738Z,4.17
2018-09-02T05:44:51.824Z,3.57
2018-09-02T05:46:55.884Z,3.60
2018-09-02T05:48:59.967Z,3.83
2018-09-02T05:51:03.568Z,3.27
2018-09-02T05:53:08.035Z,3.10
2018-09-02T05:55:11.679Z,3.60
2018-09-02T05:57:15.526Z,4.10
2018-09-02T05:59:19.313Z,3.00
2018-09-02T06:01:23.148Z,3.60
2018-09-02T06:03:26.674Z,3.37
2018-09-02T06:05:30.840Z,3.30
2018-09-02T06:07:34.722Z,3.37
2018-09-02T06:09:38.426Z,3.00
2018-09-02T06:11:42.461Z,5.73
2018-09-02T06:13:46.509Z,418.83
2018-09-02T06:15:50.309Z,851.40
2018-09-02T06:17:55.563Z,99.73
2018-09-02T06:19:59.585Z,39.93
2018-09-02T06:22:07.211Z,717.60
2018-09-02T06:24:12.943Z,311.30
2018-09-02T06:26:19.155Z,152.83
2018-09-02T06:28:22.824Z,251.87
2018-09-02T06:30:27.486Z,57.07
2018-09-02T06:32:31.731Z,31.23
2018-09-02T06:34:35.832Z,270.80
2018-09-02T06:36:39.806Z,6.73
2018-09-02T06:38:43.612Z,7.03
2018-09-02T06:40:47.383Z,5.80
2018-09-02T06:42:51.496Z,3.37
2018-09-02T06:44:55.272Z,5.83
2018-09-02T06:46:59.739Z,4.30
2018-09-02T06:49:05.681Z,4.87
2018-09-02T06:51:13.395Z,3.60
2018-09-02T06:53:19.097Z,3.70
2018-09-02T06:55:24.660Z,3.80
2018-09-02T06:57:28.699Z,3.90
2018-09-02T06:59:32.279Z,3.77
2018-09-02T07:01:36.517Z,3.20
2018-09-02T07:03:40.107Z,273.33
2018-09-02T07:05:44.087Z,49.07
2018-09-02T07:07:48.026Z,9.23
2018-09-02T07:09:51.684Z,6.27
2018-09-02T07:11:55.401Z,37.43
2018-09-02T07:13:59.441Z,114.93
2018-09-02T07:16:22.747Z,791.53
2018-09-02T07:18:27.505Z,348.10
2018-09-02T07:20:32.662Z,91.70
2018-09-02T07:22:38.220Z,15.53
2018-09-02T07:24:41.893Z,5.57
2018-09-02T07:26:46.920Z,247.47
2018-09-02T07:28:50.544Z,518.97
2018-09-02T07:30:54.383Z,881.60
2018-09-02T07:32:59.641Z,1171.90
2018-09-02T07:35:05.146Z,586.13
2018-09-02T07:37:09.305Z,599.50
2018-09-02T07:39:29.901Z,444.07
2018-09-02T07:41:37.945Z,73.17
2018-09-02T07:43:42.056Z,11.27
2018-09-02T07:45:49.668Z,5.80
2018-09-02T07:47:54.318Z,5.63
2018-09-02T07:50:02.558Z,323.43
2018-09-02T07:52:10.012Z,1445.00
2018-09-02T07:54:15.719Z,540.30
2018-09-02T07:57:50.554Z,109.60
2018-09-02T07:59:56.774Z,349.90
2018-09-02T08:02:10.245Z,407.27
2018-09-02T08:04:21.330Z,419.77
2018-09-02T08:06:28.008Z,37.90
2018-09-02T08:08:35.075Z,53.47
2018-09-02T08:10:50.282Z,17.60
2018-09-02T08:13:03.198Z,220.53
2018-09-02T08:15:14.100Z,213.53
2018-09-02T08:17:18.875Z,88.37
2018-09-02T08:19:28.518Z,37.80
2018-09-02T08:21:56.846Z,31.70
2018-09-02T08:24:02.078Z,21.40
2018-09-02T08:26:13.599Z,6.43
2018-09-02T08:31:09.598Z,784.67
2018-09-02T08:35:36.060Z,295.40
2018-09-02T08:37:44.368Z,230.57
2018-09-02T08:39:49.744Z,235.03
2018-09-02T08:41:56.688Z,188.63
2018-09-02T08:44:23.589Z,79.23
2018-09-02T08:46:31.815Z,6.10
2018-09-02T08:48:40.228Z,4.40
2018-09-02T08:50:44.064Z,5.37
2018-09-02T08:52:49.389Z,4.43
2018-09-02T08:54:53.483Z,4.13
2018-09-02T08:56:58.681Z,4.77
2018-09-02T08:59:05.001Z,4.20
2018-09-02T09:01:09.614Z,3.30
2018-09-02T09:03:15.215Z,4.30
2018-09-02T09:05:19.599Z,3.83
2018-09-02T09:07:24.734Z,92.70
2018-09-02T09:09:28.583Z,403.93
2018-09-02T09:11:32.444Z,214.23
2018-09-02T09:13:36.597Z,442.83
2018-09-02T09:15:40.571Z,550.03
2018-09-02T09:17:45.503Z,367.07
2018-09-02T09:19:49.763Z,72.17
2018-09-02T09:21:54.484Z,11.20
2018-09-02T09:23:58.994Z,6.23
2018-09-02T09:26:09.856Z,4.43
2018-09-02T09:28:22.918Z,4.30
2018-09-02T09:30:26.825Z,7.10
2018-09-02T09:32:31.332Z,20.63
2018-09-02T09:34:35.442Z,102.27
2018-09-02T09:36:40.302Z,227.20
2018-09-02T09:38:45.574Z,312.90
2018-09-02T09:40:49.804Z,524.20
2018-09-02T09:42:54.397Z,651.83
2018-09-02T09:44:59.501Z,315.10
2018-09-02T09:47:08.360Z,46.53
2018-09-02T09:49:16.845Z,6.63
2018-09-02T09:51:22.518Z,5.43
2018-09-02T09:53:26.410Z,4.90
2018-09-02T09:55:30.211Z,4.50
2018-09-02T09:57:34.381Z,5.77
2018-09-02T09:59:39.421Z,4.53
2018-09-02T10:01:44.089Z,4.50
2018-09-02T10:03:49.966Z,4.73
2018-09-02T10:05:55.826Z,9.13
2018-09-02T10:08:01.104Z,5.33
2018-09-02T10:10:11.289Z,5.90
2018-09-02T10:12:22.388Z,13.83
2018-09-02T10:14:26.930Z,344.17
2018-09-02T10:16:30.899Z,310.27
2018-09-02T10:18:34.899Z,599.97
2018-09-02T10:20:41.517Z,481.20
2018-09-02T10:22:46.301Z,429.00
2018-09-02T10:24:50.405Z,25.13
2018-09-02T10:26:54.282Z,13.57
2018-09-02T10:29:01.684Z,6.07
2018-09-02T10:31:06.051Z,187.17
2018-09-02T10:33:11.468Z,168.27
2018-09-02T10:35:19.867Z,121.57
2018-09-02T10:37:28.952Z,137.70
2018-09-02T10:39:32.802Z,101.57
2018-09-02T10:41:37.570Z,15.37
2018-09-02T10:43:41.500Z,660.03
2018-09-02T10:45:51.824Z,132.33
2018-09-02T10:47:56.872Z,15.93
2018-09-02T10:50:02.006Z,7.57
2018-09-02T10:52:06.583Z,146.90
2018-09-02T10:54:13.391Z,299.97
2018-09-02T10:56:22.050Z,174.60
2018-09-02T10:58:32.486Z,78.30
2018-09-02T11:00:41.898Z,162.77
2018-09-02T11:02:47.027Z,174.67
2018-09-02T11:04:51.699Z,20.50
2018-09-02T11:06:57.797Z,10.90
2018-09-02T11:09:05.973Z,6.23
2018-09-02T11:11:14.309Z,97.83
2018-09-02T11:13:23.243Z,509.50
2018-09-02T11:15:38.596Z,447.97
2018-09-02T11:17:43.961Z,280.80
2018-09-02T11:19:48.540Z,236.37
2018-09-02T11:21:52.876Z,65.00
2018-09-02T11:23:56.867Z,21.10
2018-09-02T11:26:01.777Z,9.30
2018-09-02T11:28:06.801Z,6.80
2018-09-02T11:30:10.908Z,5.80
2018-09-02T11:32:14.976Z,5.20
2018-09-02T11:34:19.244Z,6.67
2018-09-02T11:36:26.850Z,7.90
2018-09-02T11:38:43.308Z,7.80
2018-09-02T11:40:50.175Z,5.97
2018-09-02T11:42:54.488Z,6.17
2018-09-02T11:45:07.644Z,5.13
2018-09-02T11:47:14.144Z,5.03
2018-09-02T11:49:18.772Z,104.27
2018-09-02T11:51:23.766Z,386.60
2018-09-02T11:53:33.083Z,195.10
2018-09-02T11:55:40.579Z,48.57
2018-09-02T11:57:52.609Z,28.10
2018-09-02T11:59:56.867Z,6.77
2018-09-02T12:02:01.580Z,6.60
2018-09-02T12:04:11.638Z,4.50
2018-09-02T12:06:30.542Z,5.80
2018-09-02T12:11:02.022Z,5.30
2018-09-02T12:13:13.811Z,5.03
2018-09-02T12:15:22.993Z,207.17
2018-09-02T12:17:32.723Z,131.07
2018-09-02T12:19:45.296Z,15.87
2018-09-02T12:21:48.989Z,7.23
2018-09-02T12:23:53.615Z,6.17
2018-09-02T12:26:14.673Z,5.27
2018-09-02T12:28:19.973Z,10.87
2018-09-02T12:30:24.463Z,59.43
2018-09-02T12:32:28.427Z,41.67
2018-09-02T12:34:32.556Z,304.87
2018-09-02T12:36:36.550Z,94.17
2018-09-02T12:38:43.311Z,33.20
2018-09-02T12:40:48.340Z,10.43
2018-09-02T12:42:52.726Z,7.23
2018-09-02T12:44:57.898Z,5.77
2018-09-02T12:47:05.600Z,6.20
2018-09-02T12:49:20.821Z,7.73
2018-09-02T12:51:27.822Z,8.17
2018-09-02T12:53:32.378Z,8.00
2018-09-02T12:55:37.331Z,7.33
2018-09-02T12:57:41.613Z,6.60
2018-09-02T12:59:46.777Z,6.27
2018-09-02T13:01:50.740Z,5.80
2018-09-02T13:03:55.069Z,7.77
2018-09-02T13:06:00.399Z,6.80
2018-09-02T13:08:09.980Z,6.50
2018-09-02T13:10:22.304Z,6.60
2018-09-02T13:12:38.918Z,7.93
2018-09-02T13:14:55.796Z,8.30
2018-09-02T13:17:12.038Z,6.10
2018-09-02T13:19:24.950Z,5.90
2018-09-02T13:21:33.877Z,5.60
2018-09-02T13:23:38.499Z,8.70
2018-09-02T13:25:42.967Z,5.97
2018-09-02T13:27:47.232Z,6.03
2018-09-02T13:29:52.465Z,5.83
2018-09-02T13:31:57.069Z,6.30
2018-09-02T13:34:03.477Z,7.20
2018-09-02T13:36:08.148Z,6.83
2018-09-02T13:38:15.397Z,6.27
2018-09-02T13:40:26.132Z,6.00
2018-09-02T13:44:45.008Z,8.37
2018-09-02T13:46:50.571Z,6.87
2018-09-02T13:48:54.383Z,7.60
2018-09-02T13:50:59.479Z,6.30
2018-09-02T13:53:05.367Z,6.60
2018-09-02T13:55:09.162Z,6.90
2018-09-02T13:57:14.884Z,6.40
2018-09-02T13:59:23.229Z,6.27
2018-09-02T14:01:29.520Z,6.80
2018-09-02T14:03:36.346Z,6.37
2018-09-02T14:05:41.738Z,6.60
2018-09-02T14:07:56.954Z,6.63
2018-09-02T14:10:07.465Z,6.67
2018-09-02T14:12:11.664Z,7.47
2018-09-02T14:14:18.428Z,7.40
2018-09-02T14:16:27.466Z,6.27
2018-09-02T14:18:34.939Z,5.97
2018-09-02T14:20:43.862Z,6.77
2018-09-02T14:22:51.164Z,6.70
2018-09-02T14:24:56.805Z,7.10
2018-09-02T14:27:04.043Z,6.77
2018-09-02T14:29:08.744Z,6.50
2018-09-02T14:31:13.008Z,7.23
2018-09-02T14:33:20.516Z,7.60
2018-09-02T14:35:34.297Z,7.60
2018-09-02T14:37:41.164Z,6.80
2018-09-02T14:39:47.402Z,7.40
2018-09-02T14:41:56.665Z,6.30
2018-09-02T14:44:02.789Z,7.57
2018-09-02T14:46:06.779Z,9.70
2018-09-02T14:48:13.668Z,7.53
2018-09-02T14:50:17.385Z,6.07
2018-09-02T14:52:21.232Z,7.73
2018-09-02T14:54:26.034Z,10.63
2018-09-02T14:56:34.087Z,7.33
2018-09-02T14:58:39.942Z,7.70
2018-09-02T15:00:45.380Z,8.77
2018-09-02T15:02:48.947Z,9.30
2018-09-02T15:04:53.793Z,8.43
2018-09-02T15:07:05.393Z,8.90
2018-09-02T15:09:13.407Z,10.27
2018-09-02T15:11:18.231Z,11.67
2018-09-02T15:13:22.687Z,12.93
2018-09-02T15:15:28.425Z,16.30
2018-09-02T15:17:32.094Z,12.90
2018-09-02T15:19:36.244Z,17.77
2018-09-02T15:21:42.529Z,16.07
2018-09-02T15:23:46.689Z,12.77
2018-09-02T15:25:50.406Z,14.13
2018-09-02T15:27:54.137Z,11.90
2018-09-02T15:30:00.925Z,13.00
2018-09-02T15:32:09.169Z,13.70
2018-09-02T15:34:17.933Z,14.43
2018-09-02T15:36:23.096Z,11.83
2018-09-02T15:38:27.453Z,199.50
2018-09-02T15:40:32.215Z,464.67
2018-09-02T15:42:37.213Z,152.40
2018-09-02T15:44:41.310Z,35.73
2018-09-02T15:46:49.844Z,130.70
2018-09-02T15:48:54.560Z,411.30
2018-09-02T15:50:59.229Z,568.03
2018-09-02T15:53:04.082Z,239.70
2018-09-02T15:55:13.217Z,330.27
2018-09-02T15:57:22.048Z,125.43
2018-09-02T15:59:29.987Z,37.57
2018-09-02T16:01:35.572Z,463.30
2018-09-02T16:03:39.799Z,253.23
2018-09-02T16:05:44.775Z,197.70
2018-09-02T16:07:49.292Z,250.53
2018-09-02T16:09:54.104Z,256.80
2018-09-02T16:12:07.506Z,67.40
2018-09-02T16:14:17.364Z,362.97
2018-09-02T16:16:30.473Z,101.97
2018-09-02T16:18:39.571Z,275.10
2018-09-02T16:20:45.239Z,385.17
2018-09-02T16:22:53.146Z,84.23
2018-09-02T16:25:07.021Z,476.97
2018-09-02T16:27:24.223Z,86.43
2018-09-02T16:29:33.647Z,27.93
2018-09-02T16:31:42.491Z,123.27
2018-09-02T16:33:46.683Z,546.87
2018-09-02T16:35:51.076Z,353.30
2018-09-02T16:37:57.315Z,514.17
2018-09-02T16:40:06.571Z,464.47
2018-09-02T16:42:10.867Z,158.13
2018-09-02T16:44:18.926Z,38.57
2018-09-02T16:46:27.941Z,22.30
2018-09-02T16:48:33.555Z,102.40
2018-09-02T16:50:37.682Z,83.27
2018-09-02T16:52:42.523Z,205.07
2018-09-02T16:54:49.472Z,299.03
2018-09-02T16:56:53.127Z,147.57
2018-09-02T16:58:57.074Z,98.10
2018-09-02T17:01:01.542Z,187.57
2018-09-02T17:03:14.747Z,405.07
2018-09-02T17:05:23.966Z,513.10
2018-09-02T17:07:30.387Z,102.53
2018-09-02T17:09:37.646Z,294.30
2018-09-02T17:11:43.009Z,60.43
2018-09-02T17:13:46.861Z,42.93
2018-09-02T17:15:51.362Z,150.63
2018-09-02T17:17:57.697Z,356.87
2018-09-02T17:20:01.428Z,213.67
2018-09-02T17:22:08.864Z,182.03
2018-09-02T17:24:14.081Z,102.63
2018-09-02T17:26:18.053Z,391.73
2018-09-02T17:28:25.057Z,451.40
2018-09-02T17:30:33.611Z,197.90
2018-09-02T17:32:41.378Z,419.43
2018-09-02T17:34:45.386Z,292.40
2018-09-02T17:36:51.599Z,129.80
2018-09-02T17:38:56.543Z,57.80
2018-09-02T17:41:00.440Z,33.73
2018-09-02T17:43:04.458Z,32.80
2018-09-02T17:45:08.927Z,38.13
2018-09-02T17:47:13.119Z,472.30
2018-09-02T17:49:18.705Z,320.83
2018-09-02T17:51:23.303Z,95.10
2018-09-02T17:53:32.977Z,61.57
2018-09-02T17:55:45.069Z,33.60
2018-09-02T17:57:48.721Z,29.90
2018-09-02T17:59:53.261Z,32.97
2018-09-02T18:01:59.421Z,24.87
2018-09-02T18:04:03.808Z,26.77
2018-09-02T18:06:13.126Z,29.87
2018-09-02T18:08:19.640Z,34.03
2018-09-02T18:10:28.542Z,30.33
2018-09-02T18:12:33.722Z,29.40
2018-09-02T18:14:40.420Z,28.90
2018-09-02T18:16:46.932Z,32.13
2018-09-02T18:18:52.068Z,27.60
2018-09-02T18:20:56.695Z,32.83
2018-09-02T18:23:04.316Z,23.87
2018-09-02T18:25:13.595Z,24.60
2018-09-02T18:27:21.841Z,25.90
2018-09-02T18:31:24.543Z,196.03
2018-09-02T18:33:29.242Z,253.17
2018-09-02T18:35:33.468Z,150.13
2018-09-02T18:37:38.165Z,422.00
2018-09-02T18:39:43.013Z,537.13
2018-09-02T18:41:47.291Z,557.63
2018-09-02T18:43:51.763Z,866.17
2018-09-02T18:45:57.143Z,746.37
2018-09-02T18:48:01.528Z,1004.97
2018-09-02T18:50:08.888Z,785.27
2018-09-02T18:52:19.790Z,739.27
2018-09-02T18:54:24.659Z,634.17
2018-09-02T18:56:29.540Z,572.57
2018-09-02T18:58:34.021Z,485.03
2018-09-02T19:00:38.008Z,243.53
2018-09-02T19:02:42.123Z,123.67
2018-09-02T19:04:46.700Z,72.07
2018-09-02T19:06:50.427Z,40.50
2018-09-02T19:08:54.961Z,36.13
2018-09-02T19:11:05.109Z,29.47
2018-09-02T19:13:16.914Z,25.83
2018-09-02T19:15:26.600Z,25.70
2018-09-02T19:17:31.401Z,27.83
2018-09-02T19:19:39.275Z,154.80
2018-09-02T19:21:46.230Z,361.30
2018-09-02T19:23:51.237Z,164.33
2018-09-02T19:25:55.620Z,202.10
2018-09-02T19:28:06.124Z,424.57
2018-09-02T19:30:11.338Z,590.20
2018-09-02T19:32:21.420Z,512.13
2018-09-02T19:34:28.192Z,526.03
2018-09-02T19:36:35.630Z,442.93
2018-09-02T19:38:40.288Z,229.27
2018-09-02T19:40:51.190Z,467.10
2018-09-02T19:42:56.695Z,547.40
2018-09-02T19:45:08.218Z,506.63
2018-09-02T19:47:15.147Z,580.40
2018-09-02T19:49:23.744Z,484.67
2018-09-02T19:51:33.743Z,259.77
2018-09-02T19:53:39.301Z,77.20
2018-09-02T19:55:43.693Z,59.37
2018-09-02T19:57:47.466Z,100.83
2018-09-02T19:59:54.504Z,304.03
2018-09-02T20:01:59.593Z,192.00
2018-09-02T20:04:21.816Z,110.77
2018-09-02T20:06:28.703Z,441.70
2018-09-02T20:08:36.376Z,238.13
2018-09-02T20:10:43.558Z,463.90
2018-09-02T20:12:48.282Z,317.00
2018-09-02T20:14:52.567Z,366.67
2018-09-02T20:16:57.648Z,614.00
2018-09-02T20:20:05.206Z,900.27
2018-09-02T20:22:12.684Z,727.63
2018-09-02T20:24:17.159Z,491.93
2018-09-02T20:26:23.895Z,250.43
2018-09-02T20:28:31.987Z,162.97
2018-09-02T20:30:40.933Z,95.17
2018-09-02T20:32:49.118Z,58.23
2018-09-02T20:34:53.841Z,52.60
2018-09-02T20:36:59.149Z,44.27
2018-09-02T20:39:03.265Z,45.17
2018-09-02T20:41:06.931Z,44.70
2018-09-02T20:43:11.722Z,41.70
2018-09-02T20:45:15.562Z,41.80
2018-09-02T20:47:20.938Z,35.13
2018-09-02T20:49:26.836Z,39.40
2018-09-02T20:51:34.517Z,34.77
2018-09-02T20:53:50.875Z,31.43
2018-09-02T20:55:55.049Z,35.53
2018-09-02T20:58:00.053Z,32.70
2018-09-02T21:00:05.993Z,35.10
2018-09-02T21:02:09.826Z,32.40
2018-09-02T21:04:13.506Z,34.20
2018-09-02T21:06:18.169Z,31.40
2018-09-02T21:08:23.542Z,73.03
2018-09-02T21:10:28.634Z,48.23
2018-09-02T21:12:32.712Z,36.37
2018-09-02T21:14:36.863Z,34.57
2018-09-02T21:16:41.469Z,29.23
2018-09-02T21:18:51.148Z,44.60
2018-09-02T21:20:56.939Z,29.50
2018-09-02T21:23:02.926Z,32.07
2018-09-02T21:25:19.524Z,29.40
2018-09-02T21:27:23.655Z,32.13
2018-09-02T21:29:28.478Z,29.00
2018-09-02T21:31:33.496Z,29.40
2018-09-02T21:33:37.711Z,27.13
2018-09-02T21:35:41.449Z,31.30
2018-09-02T21:37:46.528Z,29.60
2018-09-02T21:39:50.709Z,35.00
2018-09-02T21:41:55.122Z,30.33
2018-09-02T21:43:59.742Z,25.77
2018-09-02T21:46:12.035Z,28.13
2018-09-02T21:48:20.331Z,27.47
2018-09-02T21:50:25.560Z,28.70
2018-09-02T21:52:29.985Z,28.40
2018-09-02T21:54:33.767Z,22.97
2018-09-02T21:56:37.919Z,28.03
2018-09-02T21:58:42.244Z,26.43
2018-09-02T22:00:46.896Z,22.23
2018-09-02T22:02:51.437Z,23.40
2018-09-02T22:04:55.765Z,24.40
2018-09-02T22:07:00.242Z,22.80
2018-09-02T22:09:17.063Z,24.03
2018-09-02T22:28:58.355Z,22.00
2018-09-02T22:31:04.556Z,21.97
2018-09-02T22:33:10.182Z,23.20
2018-09-02T22:35:15.095Z,21.07
2018-09-02T22:37:32.433Z,19.50
2018-09-02T22:39:38.968Z,19.23
2018-09-02T22:41:49.544Z,19.73
2018-09-02T22:43:55.214Z,19.23
2018-09-02T22:45:58.973Z,19.33
2018-09-02T22:48:09.142Z,18.43
2018-09-02T22:50:17.816Z,17.30
2018-09-02T22:52:28.004Z,19.03
2018-09-02T22:54:36.793Z,24.37
2018-09-02T22:56:45.375Z,19.00
2018-09-02T23:02:26.440Z,20.50
2018-09-02T23:04:45.794Z,20.10
2018-09-02T23:06:49.797Z,19.80
2018-09-02T23:08:55.725Z,19.40
2018-09-02T23:11:03.459Z,17.27
2018-09-02T23:13:07.620Z,19.13
2018-09-02T23:15:16.585Z,20.37
2018-09-02T23:17:24.789Z,20.60
2018-09-02T23:19:37.849Z,17.70
2018-09-02T23:21:42.239Z,17.43
2018-09-02T23:23:46.003Z,17.40
2018-09-02T23:25:50.091Z,17.63
2018-09-02T23:27:53.965Z,19.07
2018-09-02T23:29:57.639Z,17.50
2018-09-02T23:32:01.496Z,17.30
2018-09-02T23:34:06.150Z,16.87
2018-09-02T23:36:11.374Z,17.83
2018-09-02T23:38:15.504Z,18.33
2018-09-02T23:40:19.593Z,16.70
2018-09-02T23:42:26.028Z,17.30
2018-09-02T23:44:33.412Z,18.20
2018-09-02T23:46:42.179Z,20.83
2018-09-02T23:48:45.751Z,21.90
2018-09-02T23:50:50.008Z,21.03
2018-09-02T23:52:53.782Z,17.30
2018-09-02T23:54:57.892Z,17.27
2018-09-02T23:57:02.606Z,17.27
2018-09-02T23:59:06.623Z,16.43
